Terminal Aerodrome Forecast
Issued by NWS Grand Forks, ND

Home | Current Version | Previous Version | Text Only | Print | Product List | Glossary Off
Versions: 1 2 3 4 5 6 7 8 9 10 11 12 13 14 15 16 17 18 19 20 21

950
FTUS43 KFGF 211722
TAFGFK
TAF
KGFK 211722Z 2118/2218 36014KT P6SM FEW140
      TEMPO 2118/2119 SCT028
     FM220000 03009KT P6SM SKC
     FM220800 10005KT P6SM SCT250
     FM221300 14010KT P6SM BKN130
     FM221600 15014G22KT P6SM BKN100=

USA.gov is the U.S. government's official web portal to all federal, state and local government web resources and services.